createdAt,value
2022-11-29T00:01:56.148Z,96676.34
2022-11-29T00:04:22.875Z,96679.97
2022-11-29T00:06:49.490Z,96676.63
2022-11-29T00:09:16.176Z,96682.63
2022-11-29T00:11:42.824Z,96673.16
2022-11-29T00:14:11.855Z,96677.00
2022-11-29T00:16:38.520Z,96670.31
2022-11-29T00:19:05.147Z,96664.66
2022-11-29T00:21:31.772Z,96659.34
2022-11-29T00:23:58.410Z,96672.66
2022-11-29T00:26:25.066Z,96663.84
2022-11-29T00:28:51.689Z,96664.66
2022-11-29T00:31:29.055Z,96656.31
2022-11-29T00:33:56.431Z,96658.50
2022-11-29T00:36:23.229Z,96664.34
2022-11-29T00:38:49.874Z,96662.34
2022-11-29T00:41:16.518Z,96656.19
2022-11-29T00:43:43.159Z,96662.53
2022-11-29T00:46:09.821Z,96654.00
2022-11-29T00:48:36.560Z,96657.34
2022-11-29T00:51:03.841Z,96657.84
2022-11-29T00:53:30.470Z,96652.84
2022-11-29T00:55:57.512Z,96657.19
2022-11-29T00:58:24.276Z,96659.19
2022-11-29T01:00:51.326Z,96656.34
2022-11-29T01:03:17.960Z,96664.00
2022-11-29T01:05:44.836Z,96657.53
2022-11-29T01:08:12.086Z,96648.84
2022-11-29T01:10:38.693Z,96656.19
2022-11-29T01:13:05.387Z,96654.16
2022-11-29T01:15:32.074Z,96651.84
2022-11-29T01:17:58.700Z,96657.19
2022-11-29T01:20:25.317Z,96662.34
2022-11-29T01:22:52.050Z,96666.16
2022-11-29T01:25:18.669Z,96657.34
2022-11-29T01:27:45.347Z,96661.00
2022-11-29T01:30:12.039Z,96661.50
2022-11-29T01:32:38.655Z,96662.50
2022-11-29T01:35:05.849Z,96662.84
2022-11-29T01:37:32.478Z,96660.34
2022-11-29T01:39:59.164Z,96658.50
2022-11-29T01:42:25.817Z,96654.69
2022-11-29T01:45:13.490Z,96654.50
2022-11-29T01:47:41.374Z,96653.84
2022-11-29T01:50:08.215Z,96646.19
2022-11-29T01:52:34.882Z,96651.53
2022-11-29T01:55:02.645Z,96653.50
2022-11-29T01:57:29.476Z,96648.50
2022-11-29T01:59:58.673Z,96658.16
2022-11-29T02:02:32.188Z,96650.00
2022-11-29T02:04:59.501Z,96660.53
2022-11-29T02:07:26.165Z,96653.38
2022-11-29T02:09:52.865Z,96651.69
2022-11-29T02:12:25.246Z,96648.50
2022-11-29T02:15:07.006Z,96645.19
2022-11-29T02:17:43.595Z,96642.53
2022-11-29T02:20:34.746Z,96648.84
2022-11-29T02:23:20.213Z,96648.88
2022-11-29T02:26:01.844Z,96642.38
2022-11-29T02:28:33.922Z,96641.03
2022-11-29T02:31:13.401Z,96628.88
2022-11-29T02:33:46.173Z,96637.88
2022-11-29T02:36:25.017Z,96642.72
2022-11-29T02:39:03.455Z,96641.34
2022-11-29T02:41:29.957Z,96633.53
2022-11-29T02:44:41.599Z,96628.03
2022-11-29T02:47:15.973Z,96633.53
2022-11-29T02:50:05.341Z,96630.22
2022-11-29T02:52:45.339Z,96629.56
2022-11-29T02:55:23.186Z,96635.19
2022-11-29T02:58:03.635Z,96641.50
2022-11-29T03:00:30.275Z,96633.03
2022-11-29T03:03:26.391Z,96635.03
2022-11-29T03:06:13.140Z,96630.19
2022-11-29T03:09:01.473Z,96635.03
2022-11-29T03:12:12.592Z,96630.22
2022-11-29T03:15:02.665Z,96637.34
2022-11-29T03:17:57.549Z,96633.34
2022-11-29T03:20:56.966Z,96636.34
2022-11-29T03:23:59.190Z,96637.84
2022-11-29T03:26:40.860Z,96637.50
2022-11-29T03:29:11.896Z,96640.84
2022-11-29T03:31:44.269Z,96639.16
2022-11-29T03:34:29.409Z,96634.19
2022-11-29T03:37:21.895Z,96638.66
2022-11-29T03:40:00.152Z,96643.50
2022-11-29T03:42:28.905Z,96641.00
2022-11-29T03:45:05.009Z,96644.00
2022-11-29T03:47:36.314Z,96645.31
2022-11-29T03:50:09.507Z,96643.13
2022-11-29T03:52:47.326Z,96642.28
2022-11-29T03:55:32.014Z,96644.78
2022-11-29T03:58:52.797Z,96645.94
2022-11-29T04:01:21.820Z,96643.63
2022-11-29T04:04:25.860Z,96652.41
2022-11-29T04:07:10.992Z,96649.25
2022-11-29T04:09:59.160Z,96648.41
2022-11-29T04:12:47.494Z,96648.25
2022-11-29T04:15:42.320Z,96656.75
2022-11-29T04:18:24.041Z,96655.91
2022-11-29T04:20:53.451Z,96662.56
2022-11-29T04:23:36.894Z,96659.91
2022-11-29T04:26:09.290Z,96659.41
2022-11-29T04:28:47.874Z,96666.22
2022-11-29T04:31:46.707Z,96656.41
2022-11-29T04:34:35.576Z,96668.03
2022-11-29T04:37:08.367Z,96660.56
2022-11-29T04:40:08.477Z,96655.06
2022-11-29T04:43:13.305Z,96658.72
2022-11-29T04:46:05.462Z,96660.91
2022-11-29T04:48:57.469Z,96664.19
2022-11-29T04:51:58.285Z,96659.88
2022-11-29T04:54:45.628Z,96664.34
2022-11-29T04:57:40.429Z,96658.38
2022-11-29T05:00:12.109Z,96660.69
2022-11-29T05:02:57.871Z,96662.53
2022-11-29T05:05:29.863Z,96656.88
2022-11-29T05:08:21.207Z,96667.53
2022-11-29T05:10:56.682Z,96672.69
2022-11-29T05:13:44.950Z,96669.50
2022-11-29T05:16:30.174Z,96674.66
2022-11-29T05:19:17.194Z,96674.66
2022-11-29T05:22:02.422Z,96682.81
2022-11-29T05:24:47.701Z,96690.47
2022-11-29T05:27:22.436Z,96680.81
2022-11-29T05:30:10.709Z,96681.81
2022-11-29T05:32:46.297Z,96680.47
2022-11-29T05:35:50.487Z,96681.47
2022-11-29T05:38:39.049Z,96677.00
2022-11-29T05:41:08.498Z,96677.31
2022-11-29T05:43:44.966Z,96678.44
2022-11-29T05:46:29.316Z,96680.28
2022-11-29T05:49:18.918Z,96682.81
2022-11-29T05:51:51.393Z,96684.59
2022-11-29T05:54:26.593Z,96687.97
2022-11-29T05:56:59.072Z,96687.13
2022-11-29T05:59:28.062Z,96693.94
2022-11-29T06:02:10.433Z,96691.13
2022-11-29T06:04:55.673Z,96689.81
2022-11-29T06:08:11.780Z,96691.78
2022-11-29T06:10:39.845Z,96696.13
2022-11-29T06:13:35.656Z,96695.13
2022-11-29T06:16:08.046Z,96698.31
2022-11-29T06:18:47.768Z,96704.81
2022-11-29T06:21:43.767Z,96697.66
2022-11-29T06:24:26.247Z,96696.81
2022-11-29T06:27:13.676Z,96710.97
2022-11-29T06:29:58.839Z,96696.81
2022-11-29T06:32:42.502Z,96696.34
2022-11-29T06:35:18.122Z,96705.00
2022-11-29T06:37:52.259Z,96707.66
2022-11-29T06:40:18.898Z,96706.66
2022-11-29T06:42:45.510Z,96709.16
2022-11-29T06:45:13.369Z,96712.03
2022-11-29T06:47:45.870Z,96712.31
2022-11-29T06:50:37.296Z,96714.53
2022-11-29T06:53:11.686Z,96721.19
2022-11-29T06:55:56.768Z,96722.97
2022-11-29T06:58:45.278Z,96722.47
2022-11-29T07:01:33.792Z,96724.81
2022-11-29T07:04:12.022Z,96728.97
2022-11-29T07:06:38.778Z,96728.63
2022-11-29T07:09:17.186Z,96725.50
2022-11-29T07:11:44.205Z,96726.16
2022-11-29T07:14:10.990Z,96737.00
2022-11-29T07:16:55.848Z,96730.00
2022-11-29T07:19:33.641Z,96735.31
2022-11-29T07:22:18.667Z,96743.81
2022-11-29T07:25:02.044Z,96743.47
2022-11-29T07:27:40.975Z,96742.97
2022-11-29T07:30:41.360Z,96740.81
2022-11-29T07:33:29.557Z,96740.16
2022-11-29T07:36:18.645Z,96739.16
2022-11-29T07:38:55.614Z,96737.00
2022-11-29T07:41:38.394Z,96731.19
2022-11-29T07:44:23.241Z,96735.03
2022-11-29T07:46:49.954Z,96745.84
2022-11-29T07:49:16.664Z,96738.03
2022-11-29T07:51:44.345Z,96739.53
2022-11-29T07:54:12.109Z,96741.53
2022-11-29T07:56:38.748Z,96743.38
2022-11-29T07:59:05.459Z,96745.53
2022-11-29T08:01:32.115Z,96741.53
2022-11-29T08:03:58.951Z,96747.88
2022-11-29T08:06:25.812Z,96750.03
2022-11-29T08:08:52.451Z,96751.69
2022-11-29T08:11:19.070Z,96753.38
2022-11-29T08:13:45.696Z,96747.72
2022-11-29T08:16:16.316Z,96752.88
2022-11-29T08:18:42.964Z,96754.72
2022-11-29T08:21:09.607Z,96757.06
2022-11-29T08:23:36.343Z,96756.72
2022-11-29T08:26:03.002Z,96760.94
2022-11-29T08:28:29.647Z,96756.28
2022-11-29T08:31:06.410Z,96758.25
2022-11-29T08:33:35.506Z,96763.94
2022-11-29T08:36:06.608Z,96752.13
2022-11-29T08:38:33.286Z,96758.47
2022-11-29T08:41:06.908Z,96769.28
2022-11-29T08:43:33.557Z,96755.78
2022-11-29T08:46:00.250Z,96764.63
2022-11-29T08:48:26.890Z,96766.97
2022-11-29T08:50:53.981Z,96770.31
2022-11-29T08:53:20.627Z,96766.81
2022-11-29T08:55:47.253Z,96764.63
2022-11-29T08:58:14.649Z,96771.81
2022-11-29T09:00:42.600Z,96775.47
2022-11-29T09:03:09.332Z,96776.28
2022-11-29T09:05:36.551Z,96776.63
2022-11-29T09:08:03.177Z,96778.97
2022-11-29T09:10:29.809Z,96774.13
2022-11-29T09:12:56.502Z,96774.94
2022-11-29T09:15:23.142Z,96781.47
2022-11-29T09:17:49.783Z,96782.44
2022-11-29T09:20:16.476Z,96774.16
2022-11-29T09:22:43.113Z,96781.13
2022-11-29T09:25:09.743Z,96780.78
2022-11-29T09:27:36.350Z,96778.66
2022-11-29T09:30:02.994Z,96783.63
2022-11-29T09:32:29.594Z,96785.78
2022-11-29T09:34:56.225Z,96782.13
2022-11-29T09:37:22.908Z,96790.78
2022-11-29T09:39:49.539Z,96791.81
2022-11-29T09:42:27.840Z,96787.31
2022-11-29T09:45:11.810Z,96796.31
2022-11-29T09:48:04.940Z,96788.78
2022-11-29T09:50:38.356Z,96779.13
2022-11-29T09:53:26.119Z,96786.31
2022-11-29T09:56:29.732Z,96788.97
2022-11-29T09:59:01.555Z,96787.13
2022-11-29T10:01:39.164Z,96786.63
2022-11-29T10:04:14.614Z,96775.63
2022-11-29T10:06:57.127Z,96779.63
2022-11-29T10:09:33.791Z,96784.94
2022-11-29T10:12:30.682Z,96779.97
2022-11-29T10:15:15.626Z,96786.78
2022-11-29T10:17:47.578Z,96779.31
2022-11-29T10:20:19.125Z,96780.78
2022-11-29T10:22:47.018Z,96784.94
2022-11-29T10:25:29.615Z,96779.78
2022-11-29T10:27:56.242Z,96786.63
2022-11-29T10:30:22.881Z,96777.78
2022-11-29T10:32:55.010Z,96777.44
2022-11-29T10:35:21.658Z,96771.44
2022-11-29T10:38:07.772Z,96773.28
2022-11-29T10:40:35.156Z,96769.09
2022-11-29T10:43:01.958Z,96768.25
2022-11-29T10:45:33.522Z,96770.09
2022-11-29T10:48:16.683Z,96768.44
2022-11-29T10:50:44.361Z,96757.41
2022-11-29T10:53:17.867Z,96756.22
2022-11-29T10:56:13.764Z,96753.53
2022-11-29T10:58:54.294Z,96755.38
2022-11-29T11:01:20.957Z,96760.69
2022-11-29T11:03:54.182Z,96751.66
2022-11-29T11:06:24.805Z,96750.19
2022-11-29T11:09:11.546Z,96749.31
2022-11-29T11:11:38.213Z,96750.16
2022-11-29T11:14:05.572Z,96745.28
2022-11-29T11:16:37.136Z,96743.09
2022-11-29T11:19:31.182Z,96741.63
2022-11-29T11:21:59.066Z,96744.75
2022-11-29T11:24:28.379Z,96733.03
2022-11-29T11:26:55.042Z,96749.06
2022-11-29T11:29:24.745Z,96740.03
2022-11-29T11:31:54.999Z,96741.03
2022-11-29T11:34:30.589Z,96744.38
2022-11-29T11:37:15.393Z,96743.53
2022-11-29T11:39:42.700Z,96741.88
2022-11-29T11:42:14.227Z,96739.03
2022-11-29T11:44:58.423Z,96736.34
2022-11-29T11:47:29.382Z,96735.06
2022-11-29T11:50:02.072Z,96740.88
2022-11-29T11:52:52.395Z,96747.38
2022-11-29T11:55:18.893Z,96742.41
2022-11-29T11:57:45.525Z,96741.88
2022-11-29T12:01:02.534Z,96741.41
2022-11-29T12:03:35.818Z,96740.00
2022-11-29T12:06:22.574Z,96738.66
2022-11-29T12:08:49.241Z,96736.66
2022-11-29T12:11:17.168Z,96738.59
2022-11-29T12:13:49.768Z,96742.28
2022-11-29T12:16:22.890Z,96744.94
2022-11-29T12:18:50.426Z,96736.94
2022-11-29T12:21:21.060Z,96739.22
2022-11-29T12:24:21.738Z,96745.94
2022-11-29T12:26:56.899Z,96743.69
2022-11-29T12:29:24.820Z,96743.50
2022-11-29T12:32:13.138Z,96741.00
2022-11-29T12:34:58.484Z,96740.47
2022-11-29T12:37:27.990Z,96734.66
2022-11-29T12:40:12.138Z,96733.47
2022-11-29T12:43:07.004Z,96732.09
2022-11-29T12:45:41.314Z,96737.91
2022-11-29T12:48:10.204Z,96733.59
2022-11-29T12:50:55.628Z,96735.06
2022-11-29T12:54:07.116Z,96729.91
2022-11-29T12:56:57.446Z,96722.72
2022-11-29T12:59:38.109Z,96732.69
2022-11-29T13:02:27.179Z,96725.16
2022-11-29T13:05:00.192Z,96726.94
2022-11-29T13:07:26.928Z,96724.78
2022-11-29T13:10:18.229Z,96718.25
2022-11-29T13:13:17.599Z,96724.91
2022-11-29T13:16:02.723Z,96711.38
2022-11-29T13:18:34.770Z,96712.56
2022-11-29T13:21:11.459Z,96710.53
2022-11-29T13:24:08.350Z,96711.25
2022-11-29T13:26:35.621Z,96721.75
2022-11-29T13:29:02.459Z,96719.41
2022-11-29T13:31:29.190Z,96716.03
2022-11-29T13:34:13.056Z,96714.50
2022-11-29T13:37:01.460Z,96717.97
2022-11-29T13:39:46.726Z,96716.75
2022-11-29T13:42:16.317Z,96720.16
2022-11-29T13:45:06.375Z,96713.16
2022-11-29T13:47:32.986Z,96722.13
2022-11-29T13:50:03.534Z,96718.44
2022-11-29T13:52:42.283Z,96718.09
2022-11-29T13:55:11.843Z,96724.59
2022-11-29T13:58:16.239Z,96721.09
2022-11-29T14:00:43.078Z,96732.53
2022-11-29T14:03:18.798Z,96739.78
2022-11-29T14:05:46.314Z,96733.41
2022-11-29T14:08:54.491Z,96736.50
2022-11-29T14:11:24.923Z,96735.56
2022-11-29T14:13:52.586Z,96733.75
2022-11-29T14:16:28.259Z,96735.59
2022-11-29T14:19:06.661Z,96735.09
2022-11-29T14:22:01.049Z,96739.28
2022-11-29T14:24:33.574Z,96739.94
2022-11-29T14:27:06.201Z,96744.13
2022-11-29T14:29:47.942Z,96749.75
2022-11-29T14:32:34.652Z,96748.38
2022-11-29T14:35:10.293Z,96742.19
2022-11-29T14:38:01.663Z,96745.31
2022-11-29T14:40:36.300Z,96752.50
2022-11-29T14:43:02.921Z,96745.31
2022-11-29T14:45:31.589Z,96752.16
2022-11-29T14:47:58.230Z,96755.16
2022-11-29T14:50:37.388Z,96752.16
2022-11-29T14:53:06.051Z,96749.47
2022-11-29T14:55:36.685Z,96752.00
2022-11-29T14:58:05.972Z,96754.97
2022-11-29T15:00:32.757Z,96749.63
2022-11-29T15:03:13.594Z,96754.97
2022-11-29T15:05:42.888Z,96761.63
2022-11-29T15:08:26.554Z,96756.63
2022-11-29T15:10:59.856Z,96763.59
2022-11-29T15:13:31.471Z,96754.75
2022-11-29T15:16:24.096Z,96763.81
2022-11-29T15:19:15.458Z,96767.66
2022-11-29T15:22:09.785Z,96766.31
2022-11-29T15:25:00.087Z,96771.38
2022-11-29T15:27:26.960Z,96766.69
2022-11-29T15:29:53.631Z,96763.53
2022-11-29T15:32:29.370Z,96768.97
2022-11-29T15:34:55.994Z,96770.19
2022-11-29T15:37:38.466Z,96776.53
2022-11-29T15:40:23.874Z,96771.22
2022-11-29T15:43:13.363Z,96776.91
2022-11-29T15:45:40.040Z,96779.09
2022-11-29T15:48:22.954Z,96777.25
2022-11-29T15:51:15.453Z,96776.59
2022-11-29T15:53:45.475Z,96774.78
2022-11-29T15:56:47.969Z,96777.81
2022-11-29T15:59:41.041Z,96784.97
2022-11-29T16:02:21.599Z,96791.16
2022-11-29T16:04:49.492Z,96791.50
2022-11-29T16:07:16.506Z,96800.63
2022-11-29T16:09:44.950Z,96797.28
2022-11-29T16:12:16.360Z,96794.44
2022-11-29T16:14:52.864Z,96790.13
2022-11-29T16:17:20.034Z,96797.94
2022-11-29T16:19:46.816Z,96797.16
2022-11-29T16:22:23.617Z,96798.50
2022-11-29T16:24:59.054Z,96796.63
2022-11-29T16:27:25.686Z,96798.63
2022-11-29T16:29:52.313Z,96797.31
2022-11-29T16:32:29.444Z,96798.28
2022-11-29T16:34:57.204Z,96795.31
2022-11-29T16:37:25.509Z,96803.97
2022-11-29T16:39:55.312Z,96810.78
2022-11-29T16:42:25.912Z,96807.28
2022-11-29T16:45:01.806Z,96808.13
2022-11-29T16:47:47.023Z,96807.44
2022-11-29T16:50:17.949Z,96811.59
2022-11-29T16:52:44.575Z,96814.44
2022-11-29T16:55:11.209Z,96822.72
2022-11-29T16:57:38.110Z,96806.09
2022-11-29T17:00:31.791Z,96819.25
2022-11-29T17:02:58.593Z,96815.91
2022-11-29T17:05:25.366Z,96816.75
2022-11-29T17:07:52.133Z,96807.28
2022-11-29T17:10:21.207Z,96820.75
2022-11-29T17:12:48.520Z,96821.94
2022-11-29T17:15:15.374Z,96827.75
2022-11-29T17:17:42.537Z,96821.59
2022-11-29T17:20:11.768Z,96830.22
2022-11-29T17:22:38.400Z,96825.25
2022-11-29T17:25:05.316Z,96828.88
2022-11-29T17:27:31.949Z,96834.84
2022-11-29T17:29:58.591Z,96828.50
2022-11-29T17:32:26.995Z,96839.50
2022-11-29T17:34:53.946Z,96835.97
2022-11-29T17:37:20.577Z,96830.81
2022-11-29T17:39:47.466Z,96841.53
2022-11-29T17:42:14.303Z,96845.66
2022-11-29T17:44:41.084Z,96839.44
2022-11-29T17:47:07.698Z,96846.53
2022-11-29T17:49:34.333Z,96850.34
2022-11-29T17:52:00.953Z,96842.84
2022-11-29T17:54:27.589Z,96852.66
2022-11-29T17:56:54.244Z,96851.00
2022-11-29T17:59:20.882Z,96842.31
2022-11-29T18:01:47.715Z,96851.28
2022-11-29T18:04:14.809Z,96853.75
2022-11-29T18:06:41.472Z,96847.91
2022-11-29T18:09:08.909Z,96862.03
2022-11-29T18:11:45.281Z,96855.44
2022-11-29T18:14:14.975Z,96853.09
2022-11-29T18:16:41.624Z,96855.38
2022-11-29T18:19:10.783Z,96858.53
2022-11-29T18:21:37.832Z,96860.53
2022-11-29T18:24:05.234Z,96864.34
2022-11-29T18:26:32.467Z,96871.66
2022-11-29T18:28:59.252Z,96868.88
2022-11-29T18:31:30.152Z,96872.06
2022-11-29T18:33:58.258Z,96883.63
2022-11-29T18:36:29.175Z,96879.16
2022-11-29T18:38:57.137Z,96883.28
2022-11-29T18:41:24.324Z,96885.78
2022-11-29T18:43:57.889Z,96882.03
2022-11-29T18:46:24.727Z,96882.03
2022-11-29T18:48:51.764Z,96888.50
2022-11-29T18:51:19.261Z,96884.88
2022-11-29T18:53:45.930Z,96889.81
2022-11-29T18:56:17.453Z,96897.13
2022-11-29T18:58:45.624Z,96898.41
2022-11-29T19:01:15.646Z,96899.69
2022-11-29T19:03:44.411Z,96896.03
2022-11-29T19:06:15.536Z,96894.38
2022-11-29T19:08:42.460Z,96897.78
2022-11-29T19:11:13.098Z,96902.66
2022-11-29T19:13:39.987Z,96905.81
2022-11-29T19:16:07.754Z,96903.19
2022-11-29T19:18:34.882Z,96912.31
2022-11-29T19:21:10.965Z,96909.97
2022-11-29T19:23:37.637Z,96908.13
2022-11-29T19:26:08.942Z,96913.00
2022-11-29T19:28:36.225Z,96911.47
2022-11-29T19:31:03.133Z,96910.78
2022-11-29T19:33:29.803Z,96908.81
2022-11-29T19:35:56.573Z,96908.25
2022-11-29T19:38:23.215Z,96906.16
2022-11-29T19:40:49.861Z,96905.06
2022-11-29T19:43:16.527Z,96910.69
2022-11-29T19:45:43.169Z,96901.50
2022-11-29T19:48:09.807Z,96897.63
2022-11-29T19:50:36.451Z,96902.34
2022-11-29T19:53:03.090Z,96901.94
2022-11-29T19:55:29.726Z,96901.78
2022-11-29T19:57:56.456Z,96900.94
2022-11-29T20:00:23.104Z,96902.78
2022-11-29T20:02:49.871Z,96900.53
2022-11-29T20:05:16.514Z,96899.97
2022-11-29T20:07:43.194Z,96904.59
2022-11-29T20:10:10.140Z,96899.28
2022-11-29T20:12:36.752Z,96903.06
2022-11-29T20:15:03.564Z,96900.56
2022-11-29T20:17:30.180Z,96896.25
2022-11-29T20:19:56.859Z,96900.88
2022-11-29T20:22:23.553Z,96899.63
2022-11-29T20:24:50.220Z,96903.97
2022-11-29T20:27:16.845Z,96903.22
2022-11-29T20:29:43.570Z,96901.41
2022-11-29T20:32:10.301Z,96910.06
2022-11-29T20:34:37.097Z,96910.16
2022-11-29T20:37:09.559Z,96910.53
2022-11-29T20:39:54.802Z,96911.31
2022-11-29T20:42:41.764Z,96911.25
2022-11-29T20:45:08.993Z,96906.78
2022-11-29T20:47:50.625Z,96910.28
2022-11-29T20:50:26.655Z,96901.41
2022-11-29T20:53:15.274Z,96909.81
2022-11-29T20:55:47.755Z,96911.63
2022-11-29T20:58:15.080Z,96917.00
2022-11-29T21:00:41.699Z,96911.69
2022-11-29T21:03:08.400Z,96913.03
2022-11-29T21:05:37.658Z,96916.84
2022-11-29T21:08:04.356Z,96913.66
2022-11-29T21:10:31.102Z,96915.91
2022-11-29T21:12:57.903Z,96918.03
2022-11-29T21:15:24.760Z,96909.38
2022-11-29T21:17:51.642Z,96915.25
2022-11-29T21:20:21.389Z,96912.22
2022-11-29T21:22:56.536Z,96914.19
2022-11-29T21:25:45.288Z,96921.72
2022-11-29T21:28:12.917Z,96914.28
2022-11-29T21:30:39.817Z,96912.22
2022-11-29T21:33:06.782Z,96915.41
2022-11-29T21:35:33.398Z,96915.41
2022-11-29T21:38:00.975Z,96919.22
2022-11-29T21:40:27.751Z,96912.34
2022-11-29T21:42:54.509Z,96914.44
2022-11-29T21:45:21.155Z,96911.09
2022-11-29T21:47:47.793Z,96915.88
2022-11-29T21:50:14.488Z,96918.94
2022-11-29T21:52:41.126Z,96915.91
2022-11-29T21:55:08.154Z,96924.28
2022-11-29T21:57:35.083Z,96920.72
2022-11-29T22:00:02.124Z,96915.97
2022-11-29T22:02:29.160Z,96914.31
2022-11-29T22:04:55.943Z,96912.34
2022-11-29T22:07:22.639Z,96912.88
2022-11-29T22:09:49.832Z,96917.34
2022-11-29T22:12:33.652Z,96913.03
2022-11-29T22:15:01.454Z,96910.34
2022-11-29T22:17:28.116Z,96910.97
2022-11-29T22:19:54.756Z,96913.63
2022-11-29T22:22:21.398Z,96917.38
2022-11-29T22:24:48.175Z,96922.44
2022-11-29T22:27:15.447Z,96919.47
2022-11-29T22:29:42.127Z,96923.66
2022-11-29T22:32:08.897Z,96919.19
2022-11-29T22:34:35.541Z,96918.66
2022-11-29T22:37:02.239Z,96921.31
2022-11-29T22:39:29.171Z,96914.47
2022-11-29T22:41:55.944Z,96920.03
2022-11-29T22:44:25.001Z,96917.13
2022-11-29T22:46:51.691Z,96919.63
2022-11-29T22:49:18.402Z,96922.13
2022-11-29T22:51:45.043Z,96922.66
2022-11-29T22:54:11.861Z,96915.13
2022-11-29T22:56:40.370Z,96915.56
2022-11-29T22:59:07.274Z,96918.09
2022-11-29T23:01:35.756Z,96918.63
2022-11-29T23:04:04.311Z,96921.44
2022-11-29T23:06:32.557Z,96919.31
2022-11-29T23:09:03.297Z,96919.47
2022-11-29T23:11:30.002Z,96911.66
2022-11-29T23:13:56.680Z,96919.00
2022-11-29T23:16:25.055Z,96917.09
2022-11-29T23:18:51.874Z,96921.56
2022-11-29T23:21:19.490Z,96922.78
2022-11-29T23:23:47.533Z,96918.06
2022-11-29T23:26:18.795Z,96921.25
2022-11-29T23:28:46.081Z,96920.13
2022-11-29T23:31:12.863Z,96920.78
2022-11-29T23:33:39.522Z,96926.53
2022-11-29T23:36:07.280Z,96909.75
2022-11-29T23:38:34.173Z,96907.00
2022-11-29T23:41:00.815Z,96914.97
2022-11-29T23:43:34.182Z,96914.84
2022-11-29T23:46:05.520Z,96915.13
2022-11-29T23:48:32.260Z,96906.19
2022-11-29T23:50:58.920Z,96905.03
2022-11-29T23:53:25.568Z,96907.69
2022-11-29T23:56:02.930Z,96908.84
2022-11-29T23:58:29.729Z,96914.00
